Historical Data for The Anchorage, KY Weather Center
Daily Summary for February 16, 2012 Units:  Both    English   Metric
« Previous Day
Next Day »
Daily Weekly Monthly Yearly Custom
  High: Low: Average:
Temperature: 48.8 °F /  9.3 °C -999.9 °F /  -573.3 °C -856.6 °F /  -493.7 °C
Dew Point: 46.0 °F /  7.8 °C -99.9 °F /  -73.3 °C -80 °F /  -62.2 °C
Humidity: 92% -32768% -28040%
Wind Speed: 1.0mph /  1.6km/h - 1mph /  1.6km/h
Wind Gust: 6.0mph /  9.7km/h - -
Wind- - WSW
Pressure: 30.15 in /  1020.9 hPa 29.92 in /  1013.1 hPa -
Precipitation: 0.00 in /  0 mm    
Historical Graphs
 
 
Tabular Data for February 16, 2012
Time Temperature Dew Point Pressure Wind Wind Speed Wind Gust Humidity Rainfall Rate (Hourly)
00:09 -999.9 °F /  -573.3 °C -99.9 °F /  -73.3 °C 30.02in /  1016.5hPa Calm     -32768% 0.00in /  0mm
00:19 -999.9 °F /  -573.3 °C -99.9 °F /  -73.3 °C 30.03in /  1016.8hPa Calm     -32768% 0.00in /  0mm
00:29 -999.9 °F /  -573.3 °C -99.9 °F /  -73.3 °C 30.01in /  1016.1hPa Calm     -32768% 0.00in /  0mm
00:49 -999.9 °F /  -573.3 °C -99.9 °F /  -73.3 °C 30.01in /  1016.1hPa Calm     -32768% 0.00in /  0mm
00:59 -999.9 °F /  -573.3 °C -99.9 °F /  -73.3 °C 30.00in /  1015.8hPa Calm     -32768% 0.00in /  0mm
01:09 -999.9 °F /  -573.3 °C -99.9 °F /  -73.3 °C 30.00in /  1015.8hPa Calm     -32768% 0.00in /  0mm
01:19 -999.9 °F /  -573.3 °C -99.9 °F /  -73.3 °C 30.00in /  1015.8hPa Calm     -32768% 0.00in /  0mm
01:29 -999.9 °F /  -573.3 °C -99.9 °F /  -73.3 °C 30.00in /  1015.8hPa Calm     -32768% 0.00in /  0mm
01:39 -999.9 °F /  -573.3 °C -99.9 °F /  -73.3 °C 30.00in /  1015.8hPa Calm     -32768% 0.00in /  0mm
01:49 -999.9 °F /  -573.3 °C -99.9 °F /  -73.3 °C 29.99in /  1015.5hPa Calm     -32768% 0.00in /  0mm
01:59 -999.9 °F /  -573.3 °C -99.9 °F /  -73.3 °C 29.99in /  1015.5hPa Calm     -32768% 0.00in /  0mm
02:09 -999.9 °F /  -573.3 °C -99.9 °F /  -73.3 °C 29.99in /  1015.5hPa Calm     -32768% 0.00in /  0mm
02:19 -999.9 °F /  -573.3 °C -99.9 °F /  -73.3 °C 29.99in /  1015.5hPa Calm     -32768% 0.00in /  0mm
02:29 -999.9 °F /  -573.3 °C -99.9 °F /  -73.3 °C 29.99in /  1015.5hPa Calm     -32768% 0.00in /  0mm
02:39 -999.9 °F /  -573.3 °C -99.9 °F /  -73.3 °C 29.99in /  1015.5hPa Calm     -32768% 0.00in /  0mm
02:49 -999.9 °F /  -573.3 °C -99.9 °F /  -73.3 °C 29.97in /  1014.8hPa Calm     -32768% 0.00in /  0mm
02:59 -999.9 °F /  -573.3 °C -99.9 °F /  -73.3 °C 29.97in /  1014.8hPa Calm     -32768% 0.00in /  0mm
03:09 -999.9 °F /  -573.3 °C -99.9 °F /  -73.3 °C 29.97in /  1014.8hPa Calm     -32768% 0.00in /  0mm
03:19 -999.9 °F /  -573.3 °C -99.9 °F /  -73.3 °C 29.97in /  1014.8hPa Calm     -32768% 0.00in /  0mm
03:29 -999.9 °F /  -573.3 °C -99.9 °F /  -73.3 °C 29.95in /  1014.1hPa Calm     -32768% 0.00in /  0mm
03:39 -999.9 °F /  -573.3 °C -99.9 °F /  -73.3 °C 29.95in /  1014.1hPa Calm     -32768% 0.00in /  0mm
03:49 -999.9 °F /  -573.3 °C -99.9 °F /  -73.3 °C 29.95in /  1014.1hPa Calm     -32768% 0.00in /  0mm
03:59 -999.9 °F /  -573.3 °C -99.9 °F /  -73.3 °C 29.95in /  1014.1hPa Calm     -32768% 0.00in /  0mm
04:09 -999.9 °F /  -573.3 °C -99.9 °F /  -73.3 °C 29.95in /  1014.1hPa Calm     -32768% 0.00in /  0mm
04:19 -999.9 °F /  -573.3 °C -99.9 °F /  -73.3 °C 29.92in /  1013.1hPa Calm     -32768% 0.00in /  0mm
04:29 -999.9 °F /  -573.3 °C -99.9 °F /  -73.3 °C 29.92in /  1013.1hPa Calm     -32768% 0.00in /  0mm
04:39 -999.9 °F /  -573.3 °C -99.9 °F /  -73.3 °C 29.92in /  1013.1hPa Calm     -32768% 0.00in /  0mm
04:49 -999.9 °F /  -573.3 °C -99.9 °F /  -73.3 °C 29.92in /  1013.1hPa Calm     -32768% 0.00in /  0mm
04:59 -999.9 °F /  -573.3 °C -99.9 °F /  -73.3 °C 29.92in /  1013.1hPa Calm     -32768% 0.00in /  0mm
05:09 -999.9 °F /  -573.3 °C -99.9 °F /  -73.3 °C 29.92in /  1013.1hPa Calm     -32768% 0.00in /  0mm
05:19 -999.9 °F /  -573.3 °C -99.9 °F /  -73.3 °C 29.92in /  1013.1hPa Calm     -32768% 0.00in /  0mm
05:29 -999.9 °F /  -573.3 °C -99.9 °F /  -73.3 °C 29.92in /  1013.1hPa Calm     -32768% 0.00in /  0mm
05:39 -999.9 °F /  -573.3 °C -99.9 °F /  -73.3 °C 29.92in /  1013.1hPa Calm     -32768% 0.00in /  0mm
05:49 -999.9 °F /  -573.3 °C -99.9 °F /  -73.3 °C 29.92in /  1013.1hPa Calm     -32768% 0.00in /  0mm
05:59 -999.9 °F /  -573.3 °C -99.9 °F /  -73.3 °C 29.92in /  1013.1hPa Calm     -32768% 0.00in /  0mm
06:09 -999.9 °F /  -573.3 °C -99.9 °F /  -73.3 °C 29.92in /  1013.1hPa Calm     -32768% 0.00in /  0mm
06:19 -999.9 °F /  -573.3 °C -99.9 °F /  -73.3 °C 29.92in /  1013.1hPa Calm     -32768% 0.00in /  0mm
06:29 -999.9 °F /  -573.3 °C -99.9 °F /  -73.3 °C 29.92in /  1013.1hPa Calm     -32768% 0.00in /  0mm
06:39 -999.9 °F /  -573.3 °C -99.9 °F /  -73.3 °C 29.92in /  1013.1hPa Calm     -32768% 0.00in /  0mm
06:49 -999.9 °F /  -573.3 °C -99.9 °F /  -73.3 °C 29.92in /  1013.1hPa Calm     -32768% 0.00in /  0mm
06:59 -999.9 °F /  -573.3 °C -99.9 °F /  -73.3 °C 29.93in /  1013.4hPa Calm     -32768% 0.00in /  0mm
07:09 -999.9 °F /  -573.3 °C -99.9 °F /  -73.3 °C 29.93in /  1013.4hPa Calm     -32768% 0.00in /  0mm
07:19 -999.9 °F /  -573.3 °C -99.9 °F /  -73.3 °C 29.92in /  1013.1hPa Calm     -32768% 0.00in /  0mm
07:39 -999.9 °F /  -573.3 °C -99.9 °F /  -73.3 °C 29.93in /  1013.4hPa Calm     -32768% 0.00in /  0mm
07:49 -999.9 °F /  -573.3 °C -99.9 °F /  -73.3 °C 29.94in /  1013.8hPa Calm     -32768% 0.00in /  0mm
07:59 -999.9 °F /  -573.3 °C -99.9 °F /  -73.3 °C 29.93in /  1013.4hPa Calm     -32768% 0.00in /  0mm
08:09 -999.9 °F /  -573.3 °C -99.9 °F /  -73.3 °C 29.93in /  1013.4hPa Calm     -32768% 0.00in /  0mm
08:19 -999.9 °F /  -573.3 °C -99.9 °F /  -73.3 °C 29.94in /  1013.8hPa Calm     -32768% 0.00in /  0mm
08:29 -999.9 °F /  -573.3 °C -99.9 °F /  -73.3 °C 29.94in /  1013.8hPa Calm     -32768% 0.00in /  0mm
08:39 -999.9 °F /  -573.3 °C -99.9 °F /  -73.3 °C 29.94in /  1013.8hPa Calm     -32768% 0.00in /  0mm
08:49 -999.9 °F /  -573.3 °C -99.9 °F /  -73.3 °C 29.95in /  1014.1hPa Calm     -32768% 0.00in /  0mm
08:59 -999.9 °F /  -573.3 °C -99.9 °F /  -73.3 °C 29.95in /  1014.1hPa Calm     -32768% 0.00in /  0mm
09:09 -999.9 °F /  -573.3 °C -99.9 °F /  -73.3 °C 29.95in /  1014.1hPa Calm     -32768% 0.00in /  0mm
09:19 -999.9 °F /  -573.3 °C -99.9 °F /  -73.3 °C 29.96in /  1014.4hPa Calm     -32768% 0.00in /  0mm
09:29 -999.9 °F /  -573.3 °C -99.9 °F /  -73.3 °C 29.96in /  1014.4hPa Calm     -32768% 0.00in /  0mm
09:39 -999.9 °F /  -573.3 °C -99.9 °F /  -73.3 °C 29.96in /  1014.4hPa Calm     -32768% 0.00in /  0mm
09:49 -999.9 °F /  -573.3 °C -99.9 °F /  -73.3 °C 29.97in /  1014.8hPa Calm     -32768% 0.00in /  0mm
09:59 -999.9 °F /  -573.3 °C -99.9 °F /  -73.3 °C 29.99in /  1015.5hPa Calm     -32768% 0.00in /  0mm
10:09 -999.9 °F /  -573.3 °C -99.9 °F /  -73.3 °C 29.99in /  1015.5hPa Calm     -32768% 0.00in /  0mm
10:19 -999.9 °F /  -573.3 °C -99.9 °F /  -73.3 °C 29.99in /  1015.5hPa Calm     -32768% 0.00in /  0mm
10:29 -999.9 °F /  -573.3 °C -99.9 °F /  -73.3 °C 29.99in /  1015.5hPa Calm     -32768% 0.00in /  0mm
10:39 -999.9 °F /  -573.3 °C -99.9 °F /  -73.3 °C 29.99in /  1015.5hPa Calm     -32768% 0.00in /  0mm
10:49 -999.9 °F /  -573.3 °C -99.9 °F /  -73.3 °C 30.00in /  1015.8hPa Calm     -32768% 0.00in /  0mm
10:59 -999.9 °F /  -573.3 °C -99.9 °F /  -73.3 °C 30.01in /  1016.1hPa Calm     -32768% 0.00in /  0mm
11:09 -999.9 °F /  -573.3 °C -99.9 °F /  -73.3 °C 30.01in /  1016.1hPa Calm     -32768% 0.00in /  0mm
11:19 -999.9 °F /  -573.3 °C -99.9 °F /  -73.3 °C 30.02in /  1016.5hPa Calm     -32768% 0.00in /  0mm
11:29 -999.9 °F /  -573.3 °C -99.9 °F /  -73.3 °C 30.02in /  1016.5hPa Calm     -32768% 0.00in /  0mm
11:39 -999.9 °F /  -573.3 °C -99.9 °F /  -73.3 °C 30.02in /  1016.5hPa Calm     -32768% 0.00in /  0mm
11:49 -999.9 °F /  -573.3 °C -99.9 °F /  -73.3 °C 30.03in /  1016.8hPa Calm     -32768% 0.00in /  0mm
11:59 -999.9 °F /  -573.3 °C -99.9 °F /  -73.3 °C 30.02in /  1016.5hPa Calm     -32768% 0.00in /  0mm
12:09 -999.9 °F /  -573.3 °C -99.9 °F /  -73.3 °C 30.02in /  1016.5hPa Calm     -32768% 0.00in /  0mm
12:29 -999.9 °F /  -573.3 °C -99.9 °F /  -73.3 °C 30.03in /  1016.8hPa Calm     -32768% 0.00in /  0mm
12:39 -999.9 °F /  -573.3 °C -99.9 °F /  -73.3 °C 30.03in /  1016.8hPa Calm     -32768% 0.00in /  0mm
12:49 -999.9 °F /  -573.3 °C -99.9 °F /  -73.3 °C 30.03in /  1016.8hPa Calm     -32768% 0.00in /  0mm
12:59 -999.9 °F /  -573.3 °C -99.9 °F /  -73.3 °C 30.03in /  1016.8hPa Calm     -32768% 0.00in /  0mm
13:09 47.9 °F /  8.8 °C 45.7 °F /  7.6 °C 30.03in /  1016.8hPa West 1.0mph /  1.6km/h 6.0mph /  9.7km/h 92% 0.00in /  0mm
13:19 48.0 °F /  8.9 °C 45.8 °F /  7.7 °C 30.06in /  1017.8hPa Calm   3.0mph /  4.8km/h 92% 0.00in /  0mm
13:29 47.9 °F /  8.8 °C 45.7 °F /  7.6 °C 30.06in /  1017.8hPa Calm   2.0mph /  3.2km/h 92% 0.00in /  0mm
13:39 47.9 °F /  8.8 °C 45.7 °F /  7.6 °C 30.06in /  1017.8hPa Calm   2.0mph /  3.2km/h 92% 0.00in /  0mm
13:49 47.9 °F /  8.8 °C 45.7 °F /  7.6 °C 30.05in /  1017.5hPa Calm   2.0mph /  3.2km/h 92% 0.00in /  0mm
13:59 47.8 °F /  8.8 °C 45.3 °F /  7.4 °C 30.06in /  1017.8hPa Calm   2.0mph /  3.2km/h 91% 0.00in /  0mm
14:09 47.9 °F /  8.8 °C 45.4 °F /  7.4 °C 30.06in /  1017.8hPa Calm   2.0mph /  3.2km/h 91% 0.00in /  0mm
14:19 48.1 °F /  8.9 °C 45.3 °F /  7.4 °C 30.06in /  1017.8hPa Calm   2.0mph /  3.2km/h 90% 0.00in /  0mm
14:29 48.3 °F /  9.1 °C 45.5 °F /  7.5 °C 30.05in /  1017.5hPa Calm   2.0mph /  3.2km/h 90% 0.00in /  0mm
14:39 48.6 °F /  9.2 °C 45.8 °F /  7.7 °C 30.05in /  1017.5hPa Calm   2.0mph /  3.2km/h 90% 0.00in /  0mm
14:49 48.8 °F /  9.3 °C 46.0 °F /  7.8 °C 30.05in /  1017.5hPa Calm   2.0mph /  3.2km/h 90% 0.00in /  0mm
14:59 48.7 °F /  9.3 °C 45.6 °F /  7.6 °C 30.05in /  1017.5hPa SSW 1.0mph /  1.6km/h 3.0mph /  4.8km/h 89% 0.00in /  0mm
15:09 48.6 °F /  9.2 °C 45.5 °F /  7.5 °C 30.05in /  1017.5hPa Calm   2.0mph /  3.2km/h 89% 0.00in /  0mm
15:19 48.6 °F /  9.2 °C 45.5 °F /  7.5 °C 30.04in /  1017.2hPa Calm   2.0mph /  3.2km/h 89% 0.00in /  0mm
15:29 48.5 °F /  9.2 °C 45.4 °F /  7.4 °C 30.05in /  1017.5hPa Calm   2.0mph /  3.2km/h 89% 0.00in /  0mm
15:39 48.3 °F /  9.1 °C 44.9 °F /  7.2 °C 30.05in /  1017.5hPa Calm   2.0mph /  3.2km/h 88% 0.00in /  0mm
15:49 48.2 °F /  9 °C 46.0 °F /  7.8 °C 30.06in /  1017.8hPa Calm   3.0mph /  4.8km/h 92% 0.00in /  0mm
15:59 48.1 °F /  8.9 °C 44.1 °F /  6.7 °C 30.07in /  1018.2hPa Calm   3.0mph /  4.8km/h 86% 0.00in /  0mm
16:09 48.1 °F /  8.9 °C 44.4 °F /  6.9 °C 30.07in /  1018.2hPa Calm   2.0mph /  3.2km/h 87% 0.00in /  0mm
16:19 -999.9 °F /  -573.3 °C -99.9 °F /  -73.3 °C 30.07in /  1018.2hPa Calm     87% 0.00in /  0mm
16:29 -999.9 °F /  -573.3 °C -99.9 °F /  -73.3 °C 30.05in /  1017.5hPa Calm     -32768% 0.00in /  0mm
16:39 -999.9 °F /  -573.3 °C -99.9 °F /  -73.3 °C 30.05in /  1017.5hPa Calm     -32768% 0.00in /  0mm
16:49 -999.9 °F /  -573.3 °C -99.9 °F /  -73.3 °C 30.05in /  1017.5hPa Calm     -32768% 0.00in /  0mm
17:09 -999.9 °F /  -573.3 °C -99.9 °F /  -73.3 °C 30.06in /  1017.8hPa Calm     -32768% 0.00in /  0mm
17:19 -999.9 °F /  -573.3 °C -99.9 °F /  -73.3 °C 30.08in /  1018.5hPa Calm     -32768% 0.00in /  0mm
17:29 -999.9 °F /  -573.3 °C -99.9 °F /  -73.3 °C 30.08in /  1018.5hPa Calm     -32768% 0.00in /  0mm
17:39 -999.9 °F /  -573.3 °C -99.9 °F /  -73.3 °C 30.08in /  1018.5hPa Calm     -32768% 0.00in /  0mm
17:49 -999.9 °F /  -573.3 °C -99.9 °F /  -73.3 °C 30.08in /  1018.5hPa Calm     -32768% 0.00in /  0mm
17:59 -999.9 °F /  -573.3 °C -99.9 °F /  -73.3 °C 30.09in /  1018.8hPa Calm     -32768% 0.00in /  0mm
18:09 -999.9 °F /  -573.3 °C -99.9 °F /  -73.3 °C 30.09in /  1018.8hPa Calm     -32768% 0.00in /  0mm
18:19 -999.9 °F /  -573.3 °C -99.9 °F /  -73.3 °C 30.09in /  1018.8hPa Calm     -32768% 0.00in /  0mm
18:29 -999.9 °F /  -573.3 °C -99.9 °F /  -73.3 °C 30.10in /  1019.2hPa Calm     -32768% 0.00in /  0mm
18:39 -999.9 °F /  -573.3 °C -99.9 °F /  -73.3 °C 30.10in /  1019.2hPa Calm     -32768% 0.00in /  0mm
18:49 -999.9 °F /  -573.3 °C -99.9 °F /  -73.3 °C 30.10in /  1019.2hPa Calm     -32768% 0.00in /  0mm
18:59 -999.9 °F /  -573.3 °C -99.9 °F /  -73.3 °C 30.11in /  1019.5hPa Calm     -32768% 0.00in /  0mm
19:09 -999.9 °F /  -573.3 °C -99.9 °F /  -73.3 °C 30.11in /  1019.5hPa Calm     -32768% 0.00in /  0mm
19:19 -999.9 °F /  -573.3 °C -99.9 °F /  -73.3 °C 30.11in /  1019.5hPa Calm     -32768% 0.00in /  0mm
19:29 -999.9 °F /  -573.3 °C -99.9 °F /  -73.3 °C 30.11in /  1019.5hPa Calm     -32768% 0.00in /  0mm
19:39 -999.9 °F /  -573.3 °C -99.9 °F /  -73.3 °C 30.11in /  1019.5hPa Calm     -32768% 0.00in /  0mm
19:49 -999.9 °F /  -573.3 °C -99.9 °F /  -73.3 °C 30.11in /  1019.5hPa Calm     -32768% 0.00in /  0mm
19:59 -999.9 °F /  -573.3 °C -99.9 °F /  -73.3 °C 30.11in /  1019.5hPa Calm     -32768% 0.00in /  0mm
20:09 -999.9 °F /  -573.3 °C -99.9 °F /  -73.3 °C 30.11in /  1019.5hPa Calm     -32768% 0.00in /  0mm
20:19 -999.9 °F /  -573.3 °C -99.9 °F /  -73.3 °C 30.12in /  1019.9hPa Calm     -32768% 0.00in /  0mm
20:29 -999.9 °F /  -573.3 °C -99.9 °F /  -73.3 °C 30.12in /  1019.9hPa Calm     -32768% 0.00in /  0mm
20:39 -999.9 °F /  -573.3 °C -99.9 °F /  -73.3 °C 30.12in /  1019.9hPa Calm     -32768% 0.00in /  0mm
20:49 -999.9 °F /  -573.3 °C -99.9 °F /  -73.3 °C 30.13in /  1020.2hPa Calm     -32768% 0.00in /  0mm
20:59 -999.9 °F /  -573.3 °C -99.9 °F /  -73.3 °C 30.13in /  1020.2hPa Calm     -32768% 0.00in /  0mm
21:19 -999.9 °F /  -573.3 °C -99.9 °F /  -73.3 °C 30.14in /  1020.5hPa Calm     -32768% 0.00in /  0mm
21:29 -999.9 °F /  -573.3 °C -99.9 °F /  -73.3 °C 30.13in /  1020.2hPa Calm     -32768% 0.00in /  0mm
21:39 -999.9 °F /  -573.3 °C -99.9 °F /  -73.3 °C 30.13in /  1020.2hPa Calm     -32768% 0.00in /  0mm
21:49 -999.9 °F /  -573.3 °C -99.9 °F /  -73.3 °C 30.14in /  1020.5hPa Calm     -32768% 0.00in /  0mm
21:59 -999.9 °F /  -573.3 °C -99.9 °F /  -73.3 °C 30.14in /  1020.5hPa Calm     -32768% 0.00in /  0mm
22:09 -999.9 °F /  -573.3 °C -99.9 °F /  -73.3 °C 30.14in /  1020.5hPa Calm     -32768% 0.00in /  0mm
22:19 -999.9 °F /  -573.3 °C -99.9 °F /  -73.3 °C 30.14in /  1020.5hPa Calm     -32768% 0.00in /  0mm
22:29 -999.9 °F /  -573.3 °C -99.9 °F /  -73.3 °C 30.15in /  1020.9hPa Calm     -32768% 0.00in /  0mm
22:39 -999.9 °F /  -573.3 °C -99.9 °F /  -73.3 °C 30.15in /  1020.9hPa Calm     -32768% 0.00in /  0mm
22:49 -999.9 °F /  -573.3 °C -99.9 °F /  -73.3 °C 30.15in /  1020.9hPa Calm     -32768% 0.00in /  0mm
22:59 -999.9 °F /  -573.3 °C -99.9 °F /  -73.3 °C 30.15in /  1020.9hPa Calm     -32768% 0.00in /  0mm
23:09 -999.9 °F /  -573.3 °C -99.9 °F /  -73.3 °C 30.15in /  1020.9hPa Calm     -32768% 0.00in /  0mm
23:19 -999.9 °F /  -573.3 °C -99.9 °F /  -73.3 °C 30.15in /  1020.9hPa Calm     -32768% 0.00in /  0mm
23:29 -999.9 °F /  -573.3 °C -99.9 °F /  -73.3 °C 30.14in /  1020.5hPa Calm     -32768% 0.00in /  0mm
23:39 -999.9 °F /  -573.3 °C -99.9 °F /  -73.3 °C 30.14in /  1020.5hPa Calm     -32768% 0.00in /  0mm
23:49 -999.9 °F /  -573.3 °C -99.9 °F /  -73.3 °C 30.14in /  1020.5hPa Calm     -32768% 0.00in /  0mm
23:59 -999.9 °F /  -573.3 °C -99.9 °F /  -73.3 °C 30.14in /  1020.5hPa Calm     -32768% 0.00in /  0mm
Anchorage, KY Weather Center